createdAt,value
2019-01-20T00:00:08.087Z,57.75
2019-01-20T00:01:40.854Z,71.87
2019-01-20T00:03:13.360Z,58.15
2019-01-20T00:04:45.917Z,53.95
2019-01-20T00:06:18.511Z,66.05
2019-01-20T00:07:51.159Z,45.78
2019-01-20T00:09:23.747Z,35.73
2019-01-20T00:10:56.157Z,21.37
2019-01-20T00:12:28.656Z,18.30
2019-01-20T00:14:01.216Z,18.70
2019-01-20T00:15:33.701Z,16.10
2019-01-20T00:17:06.167Z,16.07
2019-01-20T00:18:38.660Z,17.70
2019-01-20T00:20:11.325Z,16.40
2019-01-20T00:21:43.923Z,17.40
2019-01-20T00:23:16.438Z,16.73
2019-01-20T00:24:48.855Z,15.13
2019-01-20T00:26:21.404Z,17.80
2019-01-20T00:27:53.943Z,17.37
2019-01-20T00:29:26.430Z,15.23
2019-01-20T00:30:58.946Z,15.03
2019-01-20T00:32:31.347Z,16.27
2019-01-20T00:34:04.252Z,15.23
2019-01-20T00:35:36.740Z,16.87
2019-01-20T00:37:09.229Z,16.05
2019-01-20T00:38:41.647Z,15.18
2019-01-20T00:40:14.481Z,15.53
2019-01-20T00:41:46.920Z,17.60
2019-01-20T00:43:19.333Z,14.55
2019-01-20T00:44:51.857Z,14.47
2019-01-20T00:46:24.345Z,15.28
2019-01-20T00:47:56.746Z,14.45
2019-01-20T00:49:29.243Z,14.98
2019-01-20T00:51:01.758Z,16.07
2019-01-20T00:52:34.294Z,14.93
2019-01-20T00:54:06.837Z,11.97
2019-01-20T00:55:39.326Z,15.65
2019-01-20T00:57:11.701Z,14.50
2019-01-20T00:58:44.112Z,15.60
2019-01-20T01:00:22.337Z,15.55
2019-01-20T01:01:54.734Z,16.62
2019-01-20T01:03:27.139Z,14.80
2019-01-20T01:04:59.387Z,16.07
2019-01-20T01:06:31.648Z,12.80
2019-01-20T01:08:04.071Z,14.90
2019-01-20T01:09:36.433Z,17.05
2019-01-20T01:11:08.746Z,14.05
2019-01-20T01:12:41.365Z,15.78
2019-01-20T01:14:13.721Z,15.63
2019-01-20T01:15:46.023Z,14.45
2019-01-20T01:17:18.382Z,13.62
2019-01-20T01:18:50.843Z,13.78
2019-01-20T01:20:23.142Z,14.38
2019-01-20T01:21:55.567Z,13.28
2019-01-20T01:23:27.860Z,15.55
2019-01-20T01:25:00.223Z,15.18
2019-01-20T01:26:32.504Z,14.65
2019-01-20T01:28:04.797Z,14.05
2019-01-20T01:29:37.155Z,16.20
2019-01-20T01:31:09.531Z,13.60
2019-01-20T01:32:41.802Z,14.78
2019-01-20T01:34:14.148Z,14.20
2019-01-20T01:35:46.565Z,16.70
2019-01-20T01:37:18.815Z,15.18
2019-01-20T01:38:51.120Z,16.20
2019-01-20T01:40:23.419Z,13.90
2019-01-20T01:41:55.819Z,15.18
2019-01-20T01:43:28.164Z,17.15
2019-01-20T01:45:00.507Z,14.13
2019-01-20T01:46:32.930Z,17.55
2019-01-20T01:48:05.298Z,15.60
2019-01-20T01:49:37.645Z,16.50
2019-01-20T01:51:09.906Z,16.23
2019-01-20T01:52:42.318Z,15.15
2019-01-20T01:54:14.610Z,14.83
2019-01-20T01:55:46.893Z,16.12
2019-01-20T01:57:19.194Z,16.00
2019-01-20T01:58:51.526Z,16.57
2019-01-20T02:00:23.792Z,14.30
2019-01-20T02:01:56.222Z,19.45
2019-01-20T02:03:28.597Z,17.32
2019-01-20T02:05:00.977Z,16.40
2019-01-20T02:06:33.331Z,17.00
2019-01-20T02:08:05.720Z,17.30
2019-01-20T02:09:38.107Z,15.18
2019-01-20T02:11:10.643Z,17.37
2019-01-20T02:12:43.296Z,18.87
2019-01-20T02:14:15.639Z,17.00
2019-01-20T02:15:48.070Z,17.48
2019-01-20T02:17:20.434Z,17.40
2019-01-20T02:18:53.120Z,16.93
2019-01-20T02:20:25.509Z,15.75
2019-01-20T02:21:57.908Z,15.90
2019-01-20T02:23:30.171Z,16.60
2019-01-20T02:25:02.614Z,16.73
2019-01-20T02:26:34.996Z,18.42
2019-01-20T02:28:07.285Z,16.93
2019-01-20T02:29:39.591Z,16.10
2019-01-20T02:31:12.001Z,14.23
2019-01-20T02:32:44.249Z,17.85
2019-01-20T02:34:16.531Z,15.88
2019-01-20T02:35:48.874Z,15.78
2019-01-20T02:37:21.239Z,16.35
2019-01-20T02:38:53.643Z,14.53
2019-01-20T02:40:25.950Z,18.15
2019-01-20T02:41:58.349Z,18.75
2019-01-20T02:43:30.700Z,16.93
2019-01-20T02:45:03.767Z,16.10
2019-01-20T02:46:36.157Z,17.52
2019-01-20T02:48:08.501Z,16.15
2019-01-20T02:49:40.770Z,17.87
2019-01-20T02:53:45.957Z,20.57
2019-01-20T02:55:18.157Z,18.60
2019-01-20T02:56:50.373Z,16.82
2019-01-20T02:58:22.709Z,16.87
2019-01-20T02:59:54.858Z,18.20
2019-01-20T03:01:26.939Z,18.50
2019-01-20T03:02:59.130Z,15.60
2019-01-20T03:04:31.447Z,16.42
2019-01-20T03:06:03.774Z,17.62
2019-01-20T03:07:36.136Z,16.12
2019-01-20T03:09:08.693Z,16.07
2019-01-20T03:10:40.932Z,16.52
2019-01-20T03:12:13.199Z,15.98
2019-01-20T03:13:45.348Z,18.25
2019-01-20T03:15:17.594Z,17.87
2019-01-20T03:16:49.874Z,19.57
2019-01-20T03:18:22.282Z,18.50
2019-01-20T03:19:54.546Z,20.10
2019-01-20T03:21:26.810Z,19.73
2019-01-20T03:22:59.066Z,20.95
2019-01-20T03:24:31.158Z,19.02
2019-01-20T03:26:03.845Z,20.55
2019-01-20T03:27:36.107Z,21.95
2019-01-20T03:29:08.372Z,20.27
2019-01-20T03:30:40.595Z,20.12
2019-01-20T03:32:12.742Z,22.00
2019-01-20T03:33:45.039Z,20.43
2019-01-20T03:35:20.101Z,21.02
2019-01-20T03:36:52.413Z,18.50
2019-01-20T03:38:24.620Z,22.00
2019-01-20T03:39:56.898Z,21.15
2019-01-20T03:41:29.070Z,18.95
2019-01-20T03:43:01.259Z,20.17
2019-01-20T03:44:33.593Z,22.60
2019-01-20T03:46:05.787Z,22.62
2019-01-20T03:47:38.073Z,22.70
2019-01-20T03:49:10.342Z,21.45
2019-01-20T03:50:42.693Z,20.35
2019-01-20T03:52:14.942Z,20.92
2019-01-20T03:53:47.199Z,22.25
2019-01-20T03:55:19.415Z,20.75
2019-01-20T03:56:51.805Z,21.12
2019-01-20T03:58:24.065Z,21.62
2019-01-20T03:59:56.387Z,19.17
2019-01-20T04:01:28.665Z,21.33
2019-01-20T04:03:02.247Z,19.67
2019-01-20T04:04:34.487Z,21.07
2019-01-20T04:06:06.636Z,22.17
2019-01-20T04:07:38.899Z,21.62
2019-01-20T04:09:11.179Z,21.62
2019-01-20T04:10:43.544Z,20.85
2019-01-20T04:12:20.502Z,22.02
2019-01-20T04:13:49.970Z,24.02
2019-01-20T04:15:22.140Z,20.50
2019-01-20T04:16:54.401Z,22.45
2019-01-20T04:18:26.681Z,21.20
2019-01-20T04:19:58.918Z,22.35
2019-01-20T04:21:31.190Z,21.87
2019-01-20T04:23:03.672Z,23.87
2019-01-20T04:24:35.987Z,21.65
2019-01-20T04:26:08.272Z,23.00
2019-01-20T04:27:40.394Z,20.88
2019-01-20T04:29:12.669Z,22.10
2019-01-20T04:30:44.925Z,21.10
2019-01-20T04:32:17.222Z,21.48
2019-01-20T04:33:49.354Z,21.17
2019-01-20T04:35:21.638Z,20.40
2019-01-20T04:36:53.879Z,21.93
2019-01-20T04:38:26.142Z,19.52
2019-01-20T04:39:58.277Z,24.45
2019-01-20T04:41:30.457Z,22.70
2019-01-20T04:43:02.765Z,23.07
2019-01-20T04:44:34.997Z,21.85
2019-01-20T04:46:07.479Z,23.00
2019-01-20T04:47:39.719Z,21.97
2019-01-20T04:49:11.887Z,21.87
2019-01-20T04:50:44.032Z,25.15
2019-01-20T04:52:16.426Z,27.73
2019-01-20T04:53:48.798Z,23.85
2019-01-20T04:55:21.059Z,23.05
2019-01-20T04:56:53.363Z,23.05
2019-01-20T04:58:25.648Z,21.80
2019-01-20T04:59:57.902Z,25.02
2019-01-20T05:01:30.243Z,21.35
2019-01-20T05:03:02.635Z,20.15
2019-01-20T05:04:34.934Z,22.73
2019-01-20T05:06:07.164Z,22.42
2019-01-20T05:07:39.405Z,22.25
2019-01-20T05:09:11.732Z,20.70
2019-01-20T05:10:44.037Z,20.30
2019-01-20T05:12:16.277Z,18.02
2019-01-20T05:13:48.577Z,20.80
2019-01-20T05:15:22.580Z,17.87
2019-01-20T05:16:54.854Z,17.82
2019-01-20T05:18:27.121Z,18.52
2019-01-20T05:19:59.223Z,18.27
2019-01-20T05:21:31.367Z,18.60
2019-01-20T05:23:03.760Z,16.60
2019-01-20T05:24:36.077Z,16.48
2019-01-20T05:26:08.333Z,15.03
2019-01-20T05:27:40.590Z,15.83
2019-01-20T05:29:12.873Z,17.12
2019-01-20T05:30:45.185Z,17.80
2019-01-20T05:32:17.475Z,15.25
2019-01-20T05:33:49.750Z,16.07
2019-01-20T05:35:21.971Z,15.85
2019-01-20T05:36:54.094Z,18.32
2019-01-20T05:38:26.383Z,18.75
2019-01-20T05:39:58.654Z,17.90
2019-01-20T05:41:30.855Z,17.55
2019-01-20T05:43:02.994Z,17.32
2019-01-20T05:44:35.249Z,18.60
2019-01-20T05:46:07.488Z,19.60
2019-01-20T05:47:39.601Z,17.73
2019-01-20T05:49:11.887Z,18.95
2019-01-20T05:50:44.211Z,20.35
2019-01-20T05:52:16.509Z,19.42
2019-01-20T05:53:48.627Z,19.00
2019-01-20T05:55:20.755Z,17.87
2019-01-20T05:56:53.068Z,17.15
2019-01-20T05:58:25.318Z,16.90
2019-01-20T05:59:57.613Z,18.37
2019-01-20T06:01:29.827Z,18.62
2019-01-20T06:03:02.086Z,20.12
2019-01-20T06:04:34.195Z,19.65
2019-01-20T06:06:06.478Z,21.90
2019-01-20T06:07:38.710Z,17.48
2019-01-20T06:09:13.881Z,18.20
2019-01-20T06:10:46.182Z,19.37
2019-01-20T06:12:18.410Z,17.57
2019-01-20T06:13:50.675Z,17.10
2019-01-20T06:15:23.480Z,16.40
2019-01-20T06:16:55.807Z,17.37
2019-01-20T06:18:28.062Z,15.85
2019-01-20T06:20:00.353Z,15.80
2019-01-20T06:21:32.699Z,17.85
2019-01-20T06:23:05.027Z,17.75
2019-01-20T06:24:37.247Z,15.88
2019-01-20T06:26:09.511Z,16.30
2019-01-20T06:27:41.792Z,17.77
2019-01-20T06:29:14.093Z,19.05
2019-01-20T06:30:46.429Z,17.25
2019-01-20T06:32:18.697Z,17.27
2019-01-20T06:33:51.247Z,17.10
2019-01-20T06:35:23.545Z,16.07
2019-01-20T06:36:55.755Z,17.05
2019-01-20T06:38:28.050Z,17.52
2019-01-20T06:40:00.306Z,17.17
2019-01-20T06:41:32.555Z,18.50
2019-01-20T06:43:04.852Z,16.17
2019-01-20T06:44:37.154Z,17.20
2019-01-20T06:46:09.269Z,17.05
2019-01-20T06:47:41.701Z,18.17
2019-01-20T06:49:13.938Z,17.30
2019-01-20T06:50:46.165Z,17.20
2019-01-20T06:52:18.392Z,19.20
2019-01-20T06:53:50.689Z,18.32
2019-01-20T06:55:22.837Z,17.07
2019-01-20T06:56:55.091Z,16.52
2019-01-20T06:58:27.250Z,18.30
2019-01-20T06:59:59.468Z,17.52
2019-01-20T07:01:31.734Z,17.15
2019-01-20T07:03:04.007Z,16.80
2019-01-20T07:04:36.333Z,14.95
2019-01-20T07:06:08.494Z,18.98
2019-01-20T07:07:40.940Z,18.52
2019-01-20T07:09:13.935Z,17.87
2019-01-20T07:10:46.188Z,17.90
2019-01-20T07:12:18.290Z,19.32
2019-01-20T07:13:50.546Z,17.02
2019-01-20T07:15:23.809Z,18.42
2019-01-20T07:16:56.077Z,16.15
2019-01-20T07:18:28.309Z,19.45
2019-01-20T07:20:00.586Z,17.67
2019-01-20T07:21:32.730Z,16.90
2019-01-20T07:23:04.999Z,17.75
2019-01-20T07:24:37.117Z,16.75
2019-01-20T07:26:09.468Z,20.70
2019-01-20T07:27:41.773Z,16.30
2019-01-20T07:29:13.907Z,18.85
2019-01-20T07:30:46.238Z,17.87
2019-01-20T07:32:18.543Z,18.62
2019-01-20T07:33:50.759Z,18.12
2019-01-20T07:35:23.014Z,16.00
2019-01-20T07:36:55.322Z,17.55
2019-01-20T07:38:27.652Z,17.27
2019-01-20T07:39:59.778Z,16.60
2019-01-20T07:41:32.123Z,18.75
2019-01-20T07:43:04.501Z,17.07
2019-01-20T07:44:36.789Z,20.27
2019-01-20T07:46:09.060Z,17.27
2019-01-20T07:47:41.378Z,17.37
2019-01-20T07:49:13.784Z,17.23
2019-01-20T07:50:47.669Z,17.52
2019-01-20T07:52:20.219Z,18.82
2019-01-20T07:53:52.418Z,17.77
2019-01-20T07:55:24.749Z,18.37
2019-01-20T07:56:56.976Z,17.48
2019-01-20T07:58:29.228Z,19.05
2019-01-20T08:00:01.486Z,20.48
2019-01-20T08:01:33.777Z,17.92
2019-01-20T08:03:05.967Z,18.82
2019-01-20T08:04:38.218Z,18.05
2019-01-20T08:06:10.363Z,16.30
2019-01-20T08:07:42.480Z,16.90
2019-01-20T08:09:14.634Z,18.87
2019-01-20T08:10:46.957Z,18.62
2019-01-20T08:12:23.454Z,20.30
2019-01-20T08:13:53.237Z,18.50
2019-01-20T08:15:25.564Z,16.75
2019-01-20T08:16:57.751Z,18.05
2019-01-20T08:18:29.872Z,17.65
2019-01-20T08:20:02.183Z,18.90
2019-01-20T08:21:34.493Z,18.32
2019-01-20T08:23:06.761Z,19.27
2019-01-20T08:24:38.878Z,19.50
2019-01-20T08:26:11.190Z,19.70
2019-01-20T08:27:43.594Z,18.20
2019-01-20T08:29:15.872Z,18.60
2019-01-20T08:30:48.153Z,18.17
2019-01-20T08:32:20.388Z,21.30
2019-01-20T08:33:52.750Z,17.82
2019-01-20T08:35:24.971Z,18.85
2019-01-20T08:36:57.106Z,16.93
2019-01-20T08:38:29.447Z,17.87
2019-01-20T08:40:01.723Z,19.42
2019-01-20T08:41:33.865Z,20.68
2019-01-20T08:43:06.123Z,20.97
2019-01-20T08:44:40.863Z,21.77
2019-01-20T08:46:54.831Z,18.23
2019-01-20T08:48:27.095Z,20.52
2019-01-20T08:50:08.010Z,17.87
2019-01-20T08:51:41.450Z,17.98
2019-01-20T08:53:13.750Z,22.30
2019-01-20T08:54:46.116Z,18.65
2019-01-20T08:56:18.351Z,20.95
2019-01-20T08:57:50.673Z,18.02
2019-01-20T08:59:22.871Z,21.37
2019-01-20T09:00:55.164Z,22.22
2019-01-20T09:02:27.587Z,19.40
2019-01-20T09:03:59.857Z,21.17
2019-01-20T09:05:31.989Z,18.92
2019-01-20T09:07:04.109Z,20.05
2019-01-20T09:08:36.387Z,21.82
2019-01-20T09:10:13.827Z,20.75
2019-01-20T09:11:45.980Z,18.35
2019-01-20T09:13:18.213Z,19.85
2019-01-20T09:14:50.547Z,20.50
2019-01-20T09:16:22.932Z,17.50
2019-01-20T09:17:55.206Z,21.05
2019-01-20T09:19:27.515Z,21.75
2019-01-20T09:20:59.825Z,20.25
2019-01-20T09:22:32.051Z,22.65
2019-01-20T09:24:04.373Z,20.17
2019-01-20T09:25:36.665Z,20.55
2019-01-20T09:27:08.897Z,21.45
2019-01-20T09:28:41.152Z,21.65
2019-01-20T09:30:16.075Z,20.05
2019-01-20T09:31:48.405Z,21.30
2019-01-20T09:33:24.652Z,18.48
2019-01-20T09:34:54.748Z,22.50
2019-01-20T09:36:26.992Z,22.27
2019-01-20T09:37:59.149Z,22.55
2019-01-20T09:39:31.408Z,21.48
2019-01-20T09:41:05.084Z,22.07
2019-01-20T09:42:37.599Z,20.97
2019-01-20T09:44:09.905Z,20.15
2019-01-20T09:45:42.323Z,22.67
2019-01-20T09:47:14.708Z,22.02
2019-01-20T09:48:46.861Z,25.20
2019-01-20T09:50:19.117Z,26.90
2019-01-20T09:51:51.941Z,25.50
2019-01-20T09:53:24.106Z,24.20
2019-01-20T09:54:56.255Z,20.80
2019-01-20T09:56:28.521Z,25.95
2019-01-20T09:58:00.706Z,23.95
2019-01-20T09:59:32.798Z,23.15
2019-01-20T10:01:05.038Z,23.67
2019-01-20T10:02:37.317Z,23.52
2019-01-20T10:04:09.534Z,22.80
2019-01-20T10:05:41.746Z,25.02
2019-01-20T10:07:13.972Z,24.90
2019-01-20T10:08:46.239Z,24.90
2019-01-20T10:10:18.546Z,24.07
2019-01-20T10:11:50.837Z,23.73
2019-01-20T10:13:22.977Z,24.25
2019-01-20T10:14:55.297Z,24.75
2019-01-20T10:16:27.420Z,27.13
2019-01-20T10:17:59.649Z,24.20
2019-01-20T10:19:31.889Z,27.30
2019-01-20T10:21:04.144Z,25.95
2019-01-20T10:22:36.430Z,24.77
2019-01-20T10:24:08.654Z,23.55
2019-01-20T10:25:40.902Z,26.75
2019-01-20T10:27:13.232Z,22.85
2019-01-20T10:28:45.576Z,26.68
2019-01-20T10:30:28.778Z,23.65
2019-01-20T10:32:01.042Z,27.85
2019-01-20T10:33:33.374Z,24.02
2019-01-20T10:35:06.033Z,25.57
2019-01-20T10:36:38.296Z,24.20
2019-01-20T10:38:11.108Z,24.15
2019-01-20T10:39:43.308Z,25.85
2019-01-20T10:41:15.524Z,22.60
2019-01-20T10:42:47.833Z,23.38
2019-01-20T10:44:20.150Z,24.35
2019-01-20T10:45:52.428Z,23.67
2019-01-20T10:47:24.670Z,25.12
2019-01-20T10:48:56.973Z,24.02
2019-01-20T10:50:29.248Z,26.30
2019-01-20T10:52:01.542Z,26.12
2019-01-20T10:53:33.822Z,23.25
2019-01-20T10:55:06.448Z,24.35
2019-01-20T10:56:38.701Z,27.30
2019-01-20T10:58:11.099Z,24.37
2019-01-20T10:59:43.371Z,24.45
2019-01-20T11:01:15.606Z,22.73
2019-01-20T11:02:47.899Z,24.32
2019-01-20T11:04:20.249Z,25.50
2019-01-20T11:05:52.847Z,21.05
2019-01-20T11:07:25.152Z,22.73
2019-01-20T11:08:57.492Z,22.37
2019-01-20T11:10:29.721Z,25.23
2019-01-20T11:12:02.047Z,23.85
2019-01-20T11:13:34.321Z,23.35
2019-01-20T11:15:07.794Z,24.05
2019-01-20T11:16:40.131Z,24.87
2019-01-20T11:18:12.302Z,23.62
2019-01-20T11:19:44.604Z,22.52
2019-01-20T11:21:16.893Z,26.12
2019-01-20T11:22:49.142Z,22.30
2019-01-20T11:24:21.452Z,24.52
2019-01-20T11:25:53.794Z,24.05
2019-01-20T11:27:26.099Z,23.87
2019-01-20T11:28:58.327Z,23.45
2019-01-20T11:30:30.469Z,21.23
2019-01-20T11:32:02.781Z,24.87
2019-01-20T11:33:35.144Z,23.77
2019-01-20T11:35:09.651Z,24.23
2019-01-20T11:36:41.886Z,22.75
2019-01-20T11:38:14.140Z,24.60
2019-01-20T11:39:46.253Z,23.55
2019-01-20T11:41:18.587Z,27.20
2019-01-20T11:42:50.877Z,24.45
2019-01-20T11:44:23.235Z,25.17
2019-01-20T11:45:55.576Z,24.50
2019-01-20T11:47:27.845Z,25.37
2019-01-20T11:49:00.093Z,23.40
2019-01-20T11:50:32.417Z,20.60
2019-01-20T11:52:04.796Z,23.92
2019-01-20T11:53:37.157Z,22.42
2019-01-20T11:55:10.358Z,24.85
2019-01-20T11:56:42.660Z,25.70
2019-01-20T11:58:15.013Z,23.92
2019-01-20T11:59:47.157Z,23.42
2019-01-20T12:01:19.482Z,23.02
2019-01-20T12:02:51.862Z,24.52
2019-01-20T12:04:24.001Z,23.65
2019-01-20T12:05:56.344Z,22.60
2019-01-20T12:07:28.633Z,21.73
2019-01-20T12:09:00.910Z,24.15
2019-01-20T12:10:33.151Z,22.58
2019-01-20T12:12:05.451Z,25.27
2019-01-20T12:13:37.780Z,24.77
2019-01-20T12:15:10.886Z,22.05
2019-01-20T12:16:43.017Z,21.80
2019-01-20T12:18:15.348Z,20.45
2019-01-20T12:19:47.598Z,21.95
2019-01-20T12:21:19.897Z,23.80
2019-01-20T12:22:52.023Z,23.67
2019-01-20T12:24:24.306Z,22.60
2019-01-20T12:25:56.465Z,24.67
2019-01-20T12:27:28.595Z,24.37
2019-01-20T12:29:00.887Z,24.10
2019-01-20T12:30:34.901Z,25.08
2019-01-20T12:32:07.207Z,28.10
2019-01-20T12:33:39.906Z,27.87
2019-01-20T12:35:12.393Z,24.07
2019-01-20T12:36:44.727Z,25.68
2019-01-20T12:38:17.018Z,25.52
2019-01-20T12:39:49.280Z,24.00
2019-01-20T12:41:21.549Z,22.30
2019-01-20T12:42:53.850Z,26.17
2019-01-20T12:44:31.347Z,23.47
2019-01-20T12:46:00.178Z,23.85
2019-01-20T12:47:32.465Z,23.32
2019-01-20T12:49:04.618Z,29.12
2019-01-20T12:50:36.888Z,30.45
2019-01-20T12:52:09.187Z,25.77
2019-01-20T12:53:41.505Z,24.70
2019-01-20T12:55:15.230Z,23.98
2019-01-20T12:56:47.471Z,23.87
2019-01-20T12:58:19.849Z,24.30
2019-01-20T12:59:52.144Z,24.52
2019-01-20T13:01:24.446Z,22.32
2019-01-20T13:02:56.671Z,23.83
2019-01-20T13:04:28.919Z,23.38
2019-01-20T13:06:01.098Z,24.47
2019-01-20T13:07:33.390Z,25.12
2019-01-20T13:09:07.950Z,30.35
2019-01-20T13:10:40.198Z,23.57
2019-01-20T13:12:12.490Z,26.60
2019-01-20T13:13:44.721Z,25.40
2019-01-20T13:15:20.623Z,30.08
2019-01-20T13:16:52.928Z,24.60
2019-01-20T13:18:25.233Z,23.00
2019-01-20T13:19:57.643Z,23.55
2019-01-20T13:21:29.871Z,25.45
2019-01-20T13:23:02.122Z,25.10
2019-01-20T13:24:34.250Z,21.93
2019-01-20T13:26:06.544Z,22.98
2019-01-20T13:27:38.672Z,25.12
2019-01-20T13:29:10.801Z,24.72
2019-01-20T13:30:43.125Z,24.12
2019-01-20T13:32:15.283Z,22.62
2019-01-20T13:33:47.572Z,23.62
2019-01-20T13:35:20.624Z,23.50
2019-01-20T13:36:52.925Z,21.90
2019-01-20T13:38:26.119Z,23.07
2019-01-20T13:39:58.531Z,25.12
2019-01-20T13:41:31.960Z,23.18
2019-01-20T13:43:04.272Z,24.35
2019-01-20T13:44:36.671Z,23.47
2019-01-20T13:46:08.793Z,24.15
2019-01-20T13:47:41.006Z,23.38
2019-01-20T13:49:13.230Z,22.00
2019-01-20T13:50:45.496Z,23.45
2019-01-20T13:52:17.758Z,23.27
2019-01-20T13:53:50.217Z,24.87
2019-01-20T13:55:22.511Z,22.95
2019-01-20T13:56:54.770Z,22.27
2019-01-20T13:58:27.044Z,24.82
2019-01-20T13:59:59.361Z,23.18
2019-01-20T14:01:31.593Z,22.35
2019-01-20T14:03:03.813Z,22.00
2019-01-20T14:04:36.067Z,23.52
2019-01-20T14:06:08.357Z,24.35
2019-01-20T14:07:40.440Z,24.75
2019-01-20T14:09:12.722Z,24.15
2019-01-20T14:10:44.978Z,26.40
2019-01-20T14:12:17.262Z,25.55
2019-01-20T14:13:49.401Z,24.70
2019-01-20T14:15:21.620Z,22.85
2019-01-20T14:16:53.745Z,27.45
2019-01-20T14:18:25.885Z,27.98
2019-01-20T14:19:58.179Z,28.98
2019-01-20T14:21:30.448Z,27.32
2019-01-20T14:23:02.721Z,27.85
2019-01-20T14:24:34.889Z,27.30
2019-01-20T14:26:07.137Z,23.50
2019-01-20T14:27:39.510Z,25.17
2019-01-20T14:29:11.817Z,24.90
2019-01-20T14:30:44.227Z,30.05
2019-01-20T14:32:16.522Z,25.62
2019-01-20T14:33:48.745Z,21.73
2019-01-20T14:35:21.153Z,23.18
2019-01-20T14:36:53.454Z,23.87
2019-01-20T14:38:25.746Z,24.52
2019-01-20T14:39:57.856Z,24.55
2019-01-20T14:41:30.182Z,22.80
2019-01-20T14:43:02.341Z,25.88
2019-01-20T14:44:34.518Z,26.40
2019-01-20T14:46:06.676Z,24.12
2019-01-20T14:47:39.080Z,26.45
2019-01-20T14:49:11.432Z,24.30
2019-01-20T14:50:43.659Z,22.98
2019-01-20T14:52:15.987Z,24.30
2019-01-20T14:53:48.277Z,24.65
2019-01-20T14:55:20.894Z,25.88
2019-01-20T14:56:53.261Z,24.87
2019-01-20T14:58:25.596Z,24.98
2019-01-20T14:59:58.612Z,25.57
2019-01-20T15:01:31.024Z,25.08
2019-01-20T15:03:03.676Z,25.60
2019-01-20T15:04:36.014Z,27.32
2019-01-20T15:06:08.309Z,27.42
2019-01-20T15:07:40.851Z,25.25
2019-01-20T15:09:13.237Z,25.10
2019-01-20T15:10:45.578Z,27.65
2019-01-20T15:12:17.769Z,27.37
2019-01-20T15:13:50.028Z,25.30
2019-01-20T15:15:27.188Z,26.15
2019-01-20T15:17:01.016Z,27.25
2019-01-20T15:18:33.196Z,24.77
2019-01-20T15:20:07.069Z,26.52
2019-01-20T15:21:39.456Z,30.17
2019-01-20T15:23:11.614Z,28.85
2019-01-20T15:24:43.869Z,30.20
2019-01-20T15:26:16.304Z,31.55
2019-01-20T15:27:48.702Z,27.70
2019-01-20T15:29:21.174Z,29.32
2019-01-20T15:30:53.976Z,34.45
2019-01-20T15:32:26.461Z,33.95
2019-01-20T15:33:58.861Z,32.55
2019-01-20T15:35:31.249Z,31.95
2019-01-20T15:37:03.758Z,29.55
2019-01-20T15:38:36.066Z,29.60
2019-01-20T15:40:09.137Z,30.52
2019-01-20T15:41:41.317Z,28.57
2019-01-20T15:43:13.594Z,30.27
2019-01-20T15:44:45.893Z,33.85
2019-01-20T15:46:19.122Z,32.03
2019-01-20T15:47:52.640Z,29.75
2019-01-20T15:49:25.097Z,30.97
2019-01-20T15:50:57.351Z,30.75
2019-01-20T15:52:29.690Z,33.67
2019-01-20T15:54:01.819Z,31.82
2019-01-20T15:55:34.107Z,34.05
2019-01-20T15:57:06.329Z,33.98
2019-01-20T15:58:38.590Z,31.57
2019-01-20T16:00:16.888Z,33.60
2019-01-20T16:01:49.150Z,34.27
2019-01-20T16:03:21.382Z,28.45
2019-01-20T16:04:53.701Z,28.38
2019-01-20T16:06:26.005Z,30.55
2019-01-20T16:07:58.380Z,29.72
2019-01-20T16:09:30.492Z,32.90
2019-01-20T16:11:02.893Z,31.00
2019-01-20T16:12:35.185Z,30.95
2019-01-20T16:14:07.474Z,29.40
2019-01-20T16:15:39.686Z,30.27
2019-01-20T16:17:11.980Z,30.92
2019-01-20T16:18:44.291Z,34.70
2019-01-20T16:20:16.910Z,30.68
2019-01-20T16:21:49.081Z,30.57
2019-01-20T16:23:21.364Z,30.15
2019-01-20T16:24:53.693Z,33.67
2019-01-20T16:26:25.855Z,32.63
2019-01-20T16:27:58.087Z,30.97
2019-01-20T16:29:30.436Z,30.75
2019-01-20T16:31:02.735Z,31.05
2019-01-20T16:32:35.057Z,33.15
2019-01-20T16:34:07.350Z,31.57
2019-01-20T16:35:39.725Z,32.45
2019-01-20T16:37:12.206Z,29.70
2019-01-20T16:38:44.432Z,34.05
2019-01-20T16:40:18.312Z,32.63
2019-01-20T16:41:50.591Z,34.23
2019-01-20T16:43:23.065Z,35.35
2019-01-20T16:44:55.400Z,34.05
2019-01-20T16:46:27.706Z,38.65
2019-01-20T16:48:00.002Z,38.40
2019-01-20T16:49:32.303Z,40.45
2019-01-20T16:51:04.589Z,42.45
2019-01-20T16:52:36.893Z,49.08
2019-01-20T16:54:09.270Z,42.45
2019-01-20T16:55:41.542Z,41.60
2019-01-20T16:57:13.789Z,38.35
2019-01-20T16:58:46.131Z,36.10
2019-01-20T17:00:20.859Z,39.50
2019-01-20T17:01:53.137Z,40.20
2019-01-20T17:03:25.411Z,38.88
2019-01-20T17:04:57.789Z,47.23
2019-01-20T17:06:30.162Z,51.45
2019-01-20T17:08:02.409Z,56.68
2019-01-20T17:09:34.707Z,60.35
2019-01-20T17:11:07.003Z,54.30
2019-01-20T17:12:39.287Z,44.58
2019-01-20T17:14:11.518Z,39.75
2019-01-20T17:15:45.069Z,40.43
2019-01-20T17:17:17.343Z,35.80
2019-01-20T17:18:49.612Z,40.55
2019-01-20T17:20:21.985Z,39.67
2019-01-20T17:21:54.345Z,34.10
2019-01-20T17:23:26.645Z,39.75
2019-01-20T17:24:58.909Z,41.65
2019-01-20T17:26:31.215Z,41.08
2019-01-20T17:28:03.818Z,41.20
2019-01-20T17:29:36.091Z,45.95
2019-01-20T17:31:08.461Z,44.98
2019-01-20T17:32:40.669Z,39.35
2019-01-20T17:34:12.929Z,34.90
2019-01-20T17:35:45.053Z,36.68
2019-01-20T17:37:17.399Z,36.95
2019-01-20T17:38:49.656Z,38.05
2019-01-20T17:40:23.309Z,36.83
2019-01-20T17:41:55.561Z,34.05
2019-01-20T17:43:27.652Z,35.88
2019-01-20T17:44:59.874Z,35.55
2019-01-20T17:46:32.168Z,35.78
2019-01-20T17:48:04.603Z,36.50
2019-01-20T17:49:36.947Z,39.83
2019-01-20T17:51:09.175Z,35.95
2019-01-20T17:52:41.407Z,36.80
2019-01-20T17:54:13.659Z,38.95
2019-01-20T17:55:45.875Z,35.10
2019-01-20T17:57:18.237Z,33.35
2019-01-20T17:58:50.554Z,35.17
2019-01-20T18:00:28.412Z,35.43
2019-01-20T18:02:00.717Z,37.50
2019-01-20T18:03:33.031Z,39.48
2019-01-20T18:05:06.989Z,36.30
2019-01-20T18:06:39.158Z,36.40
2019-01-20T18:08:11.393Z,39.00
2019-01-20T18:09:43.561Z,39.70
2019-01-20T18:11:15.818Z,37.67
2019-01-20T18:12:48.049Z,40.25
2019-01-20T18:14:20.313Z,39.40
2019-01-20T18:15:54.765Z,36.70
2019-01-20T18:17:26.728Z,37.48
2019-01-20T18:18:59.017Z,40.65
2019-01-20T18:20:31.414Z,41.63
2019-01-20T18:22:03.639Z,43.78
2019-01-20T18:23:35.913Z,52.50
2019-01-20T18:25:10.113Z,54.65
2019-01-20T18:26:42.229Z,53.92
2019-01-20T18:28:14.508Z,44.08
2019-01-20T18:29:46.620Z,46.10
2019-01-20T18:31:18.926Z,48.42
2019-01-20T18:32:51.107Z,52.88
2019-01-20T18:34:23.333Z,51.30
2019-01-20T18:35:55.574Z,46.37
2019-01-20T18:37:27.931Z,53.73
2019-01-20T18:39:00.091Z,47.80
2019-01-20T18:40:32.466Z,40.33
2019-01-20T18:42:04.759Z,38.73
2019-01-20T18:43:37.065Z,37.05
2019-01-20T18:45:10.714Z,36.28
2019-01-20T18:46:42.965Z,34.43
2019-01-20T18:48:15.165Z,37.75
2019-01-20T18:49:47.544Z,35.98
2019-01-20T18:51:20.818Z,35.25
2019-01-20T18:52:53.064Z,35.85
2019-01-20T18:54:25.407Z,35.45
2019-01-20T18:55:57.724Z,36.15
2019-01-20T18:57:30.005Z,33.67
2019-01-20T18:59:02.121Z,39.03
2019-01-20T19:00:55.401Z,34.33
2019-01-20T19:02:27.651Z,35.70
2019-01-20T19:03:59.880Z,34.70
2019-01-20T19:05:32.118Z,34.45
2019-01-20T19:07:04.383Z,33.08
2019-01-20T19:08:36.650Z,35.17
2019-01-20T19:10:09.813Z,32.67
2019-01-20T19:11:42.058Z,35.33
2019-01-20T19:13:14.293Z,34.67
2019-01-20T19:14:46.555Z,31.42
2019-01-20T19:16:18.934Z,33.55
2019-01-20T19:17:51.188Z,32.85
2019-01-20T19:19:23.495Z,33.75
2019-01-20T19:20:55.682Z,32.95
2019-01-20T19:22:27.923Z,34.65
2019-01-20T19:24:00.160Z,33.42
2019-01-20T19:25:32.395Z,34.88
2019-01-20T19:27:04.695Z,36.42
2019-01-20T19:28:36.982Z,37.40
2019-01-20T19:30:12.429Z,33.50
2019-01-20T19:31:44.617Z,35.55
2019-01-20T19:33:16.875Z,32.45
2019-01-20T19:34:49.069Z,32.98
2019-01-20T19:36:21.305Z,31.93
2019-01-20T19:37:53.450Z,34.50
2019-01-20T19:39:25.636Z,34.38
2019-01-20T19:40:57.831Z,32.60
2019-01-20T19:42:29.945Z,31.80
2019-01-20T19:44:02.225Z,36.95
2019-01-20T19:45:34.495Z,36.60
2019-01-20T19:47:06.799Z,35.48
2019-01-20T19:48:39.011Z,38.33
2019-01-20T19:50:12.040Z,38.10
2019-01-20T19:51:44.241Z,35.52
2019-01-20T19:53:16.512Z,38.15